Time;durP1;ratioP1;P1;durP2;ratioP2;P2;SDS_P1;SDS_P2;PMS_P1;PMS_P2;Temp;Humidity;BMP_temperature;BMP_pressure;BME280_temperature;BME280_humidity;BME280_pressure;Samples;Min_cycle;Max_cycle;Signal;HPM_P1;HPM_P2
2024/01/04 00:01:57;;;;;;;9.80;5.00;;;;;;;7.32;100.00;97662.80;102727;1261;138669;-67
2024/01/04 00:04:23;;;;;;;9.40;5.00;;;;;;;7.32;100.00;97662.96;102741;1264;108435;-69
2024/01/04 00:06:50;;;;;;;8.40;4.70;;;;;;;7.34;100.00;97665.98;102703;1264;139588;-68
2024/01/04 00:09:18;;;;;;;8.70;4.50;;;;;;;7.34;100.00;97670.44;102870;1263;112172;-69
2024/01/04 00:11:45;;;;;;;7.40;4.60;;;;;;;7.34;100.00;97669.60;102812;1259;108456;-69
2024/01/04 00:14:12;;;;;;;9.10;4.80;;;;;;;7.36;100.00;97672.79;102977;1260;138479;-71
2024/01/04 00:16:38;;;;;;;8.50;4.90;;;;;;;7.37;100.00;97668.41;102790;1260;108537;-68
2024/01/04 00:19:05;;;;;;;8.30;4.10;;;;;;;7.37;100.00;97671.14;102678;1265;139271;-69
2024/01/04 00:21:33;;;;;;;8.60;4.30;;;;;;;7.36;100.00;97674.84;102784;1266;111899;-69
2024/01/04 00:24:01;;;;;;;8.20;4.30;;;;;;;7.36;100.00;97677.27;102754;1261;108251;-71
2024/01/04 00:26:28;;;;;;;6.70;4.30;;;;;;;7.38;100.00;97675.60;102684;1263;140037;-70
2024/01/04 00:28:54;;;;;;;7.00;4.00;;;;;;;7.37;100.00;97673.90;102765;1264;107875;-70
2024/01/04 00:31:21;;;;;;;8.30;4.10;;;;;;;7.36;100.00;97675.38;102672;1264;138498;-69
2024/01/04 00:33:48;;;;;;;9.00;4.60;;;;;;;7.35;100.00;97675.41;102752;1265;111533;-70
2024/01/04 00:36:15;;;;;;;7.20;4.00;;;;;;;7.35;100.00;97681.46;102621;1266;107410;-70
2024/01/04 00:38:42;;;;;;;7.40;4.10;;;;;;;7.34;100.00;97680.47;102659;1262;138892;-70
2024/01/04 00:41:09;;;;;;;7.00;3.60;;;;;;;7.35;100.00;97678.70;102661;1261;107671;-70
2024/01/04 00:43:37;;;;;;;6.70;3.40;;;;;;;7.35;100.00;97680.25;102584;1264;138396;-70
2024/01/04 00:46:04;;;;;;;8.70;4.10;;;;;;;7.35;100.00;97681.96;102810;1260;111083;-70
2024/01/04 00:48:31;;;;;;;5.50;3.50;;;;;;;7.35;100.00;97681.29;102626;1265;138638;-69
2024/01/04 00:51:01;;;;;;;6.30;3.50;;;;;;;7.34;100.00;97684.08;102785;1264;97850;-70
2024/01/04 00:53:28;;;;;;;6.00;3.40;;;;;;;7.34;100.00;97686.34;102741;1266;107636;-70
2024/01/04 00:55:55;;;;;;;6.70;3.20;;;;;;;7.35;100.00;97686.80;102723;1265;139535;-70
2024/01/04 00:58:22;;;;;;;6.10;3.60;;;;;;;7.36;100.00;97686.59;102844;1263;111725;-71
2024/01/04 01:00:49;;;;;;;5.20;3.20;;;;;;;7.37;100.00;97687.08;102727;1260;139968;-70
2024/01/04 01:03:16;;;;;;;6.20;3.30;;;;;;;7.38;100.00;97687.20;102717;1266;97782;-70
2024/01/04 01:05:43;;;;;;;7.40;3.70;;;;;;;7.37;100.00;97685.52;102830;1264;108084;-70
2024/01/04 01:08:10;;;;;;;5.40;3.30;;;;;;;7.37;100.00;97688.63;102726;1261;138520;-71
2024/01/04 01:10:37;;;;;;;4.60;3.30;;;;;;;7.39;100.00;97684.39;102785;1260;110557;-72
2024/01/04 01:13:05;;;;;;;9.70;3.60;;;;;;;7.39;100.00;97682.98;102788;1266;138621;-70
2024/01/04 01:15:32;;;;;;;5.10;2.90;;;;;;;7.40;100.00;97683.63;102843;1267;97819;-70
2024/01/04 01:18:00;;;;;;;6.10;3.30;;;;;;;7.40;100.00;97682.41;102731;1267;107938;-69
2024/01/04 01:20:28;;;;;;;4.90;2.70;;;;;;;7.40;100.00;97681.14;102575;1261;139937;-71
2024/01/04 01:22:55;;;;;;;5.90;3.00;;;;;;;7.38;100.00;97682.54;102721;1267;112078;-70
2024/01/04 01:25:22;;;;;;;5.70;3.00;;;;;;;7.35;100.00;97684.23;102596;1264;138479;-71
2024/01/04 01:27:48;;;;;;;4.90;3.00;;;;;;;7.38;100.00;97684.39;102775;1266;97802;-70
2024/01/04 01:30:15;;;;;;;7.10;3.30;;;;;;;7.41;100.00;97687.33;102747;1265;107493;-70
2024/01/04 01:32:42;;;;;;;4.70;2.80;;;;;;;7.42;100.00;97686.73;102662;1266;138235;-70
2024/01/04 01:35:10;;;;;;;8.20;3.50;;;;;;;7.44;100.00;97688.55;102794;1264;110941;-70
2024/01/04 01:37:37;;;;;;;6.60;3.30;;;;;;;7.46;100.00;97686.35;102616;1265;138430;-71
2024/01/04 01:40:05;;;;;;;4.90;2.90;;;;;;;7.47;100.00;97688.53;102743;1264;98359;-69
2024/01/04 01:42:32;;;;;;;5.50;3.30;;;;;;;7.48;100.00;97692.74;102766;1264;138500;-70
2024/01/04 01:44:59;;;;;;;7.20;3.30;;;;;;;7.48;100.00;97691.73;102785;1260;97807;-70
2024/01/04 01:47:27;;;;;;;5.20;3.30;;;;;;;7.48;100.00;97688.10;104157;1264;111907;-72
2024/01/04 01:49:55;;;;;;;6.10;3.90;;;;;;;7.48;100.00;97687.06;102982;1264;138722;-70
2024/01/04 01:52:23;;;;;;;7.90;3.80;;;;;;;7.51;100.00;97691.40;102813;1264;97873;-70
2024/01/04 01:54:52;;;;;;;6.00;3.20;;;;;;;7.50;100.00;97689.35;102656;1266;138597;-70
2024/01/04 01:57:19;;;;;;;5.80;3.20;;;;;;;7.51;100.00;97689.46;102801;1264;97817;-70
2024/01/04 01:59:47;;;;;;;6.50;3.00;;;;;;;7.51;100.00;97689.48;102677;1263;111618;-69
2024/01/04 02:02:14;;;;;;;4.50;3.30;;;;;;;7.52;100.00;97685.09;102541;1264;137743;-71
2024/01/04 02:04:42;;;;;;;6.80;3.30;;;;;;;7.53;100.00;97687.60;102795;1264;97834;-70
2024/01/04 02:07:09;;;;;;;7.10;3.20;;;;;;;7.54;100.00;97685.16;102716;1264;138235;-69
2024/01/04 02:09:36;;;;;;;6.00;3.30;;;;;;;7.52;100.00;97682.50;102634;1267;97859;-69
2024/01/04 02:12:13;;;;;;;5.10;2.90;;;;;;;7.52;100.00;97684.77;102828;1264;111523;-69
2024/01/04 02:14:40;;;;;;;8.30;3.30;;;;;;;7.53;100.00;97684.19;103264;1266;138582;-70
2024/01/04 02:17:08;;;;;;;6.30;3.10;;;;;;;7.52;100.00;97684.89;102743;1264;107529;-68
2024/01/04 02:19:35;;;;;;;3.80;2.70;;;;;;;7.53;100.00;97685.17;102793;1264;138486;-69
2024/01/04 02:22:02;;;;;;;4.60;3.10;;;;;;;7.51;100.00;97680.84;102768;1260;97978;-67
2024/01/04 02:24:29;;;;;;;4.30;3.00;;;;;;;7.53;100.00;97685.71;102670;1261;138753;-68
2024/01/04 02:26:56;;;;;;;7.30;3.10;;;;;;;7.53;100.00;97679.16;102743;1261;107628;-68
2024/01/04 02:29:23;;;;;;;5.10;2.60;;;;;;;7.54;100.00;97681.16;102824;1263;98528;-69
2024/01/04 02:31:50;;;;;;;8.00;3.20;;;;;;;7.56;100.00;97679.18;102688;1264;138444;-70
2024/01/04 02:34:18;;;;;;;6.60;3.30;;;;;;;7.56;100.00;97676.53;102707;1260;97809;-69
2024/01/04 02:36:45;;;;;;;6.50;3.20;;;;;;;7.59;100.00;97676.92;102666;1264;138701;-69
2024/01/04 02:39:11;;;;;;;5.50;3.20;;;;;;;7.60;100.00;97676.30;102790;1261;107649;-72
2024/01/04 02:41:38;;;;;;;5.80;2.90;;;;;;;7.60;100.00;97670.83;102752;1261;97882;-69
2024/01/04 02:44:05;;;;;;;5.20;3.10;;;;;;;7.59;100.00;97675.53;102724;1263;138593;-70
2024/01/04 02:46:34;;;;;;;4.90;3.10;;;;;;;7.57;100.00;97674.90;102768;1264;97826;-70
2024/01/04 02:49:00;;;;;;;4.00;2.90;;;;;;;7.57;100.00;97670.13;102693;1259;138383;-69
2024/01/04 02:51:27;;;;;;;6.50;3.40;;;;;;;7.54;100.00;97669.76;102807;1260;108546;-70
2024/01/04 02:53:54;;;;;;;6.20;3.60;;;;;;;7.52;100.00;97671.98;102831;1261;99270;-71
2024/01/04 02:56:21;;;;;;;7.60;3.50;;;;;;;7.49;100.00;97671.59;102681;1266;138825;-70
2024/01/04 02:58:48;;;;;;;4.50;3.00;;;;;;;7.44;100.00;97665.87;102886;1264;97912;-70
2024/01/04 03:01:20;;;;;;;7.00;3.40;;;;;;;7.43;100.00;97670.10;102780;1263;138332;-70
2024/01/04 03:03:48;;;;;;;7.80;3.40;;;;;;;7.40;100.00;97669.77;102791;1263;107723;-70
2024/01/04 03:06:15;;;;;;;5.70;3.30;;;;;;;7.38;100.00;97662.66;102766;1261;98183;-71
2024/01/04 03:08:42;;;;;;;5.80;2.80;;;;;;;7.32;100.00;97659.70;102753;1263;138107;-70
2024/01/04 03:11:09;;;;;;;6.20;3.30;;;;;;;7.33;100.00;97664.80;102802;1264;97822;-71
2024/01/04 03:13:36;;;;;;;6.10;3.40;;;;;;;7.31;100.00;97663.54;102742;1260;138531;-70
2024/01/04 03:16:03;;;;;;;5.20;2.90;;;;;;;7.31;100.00;97659.61;102837;1260;107669;-70
2024/01/04 03:18:30;;;;;;;8.20;3.30;;;;;;;7.30;100.00;97660.68;102760;1260;138709;-70
2024/01/04 03:20:57;;;;;;;5.80;3.20;;;;;;;7.29;100.00;97663.68;102809;1261;108182;-70
2024/01/04 03:23:24;;;;;;;4.00;2.90;;;;;;;7.26;100.00;97657.61;102900;1261;97842;-70
2024/01/04 03:25:51;;;;;;;5.30;3.20;;;;;;;7.25;100.00;97656.13;102748;1261;139143;-70
2024/01/04 03:28:18;;;;;;;5.60;2.90;;;;;;;7.24;100.00;97658.08;102695;1260;107983;-70
2024/01/04 03:30:45;;;;;;;4.50;2.90;;;;;;;7.24;100.00;97656.89;102737;1264;138554;-70
2024/01/04 03:33:12;;;;;;;5.90;2.70;;;;;;;7.23;100.00;97656.45;103029;1260;107531;-70
2024/01/04 03:35:39;;;;;;;5.90;3.00;;;;;;;7.21;100.00;97657.79;103010;1260;97843;-71
2024/01/04 03:38:06;;;;;;;7.60;3.20;;;;;;;7.18;100.00;97652.40;102800;1263;138302;-70
2024/01/04 03:40:33;;;;;;;5.50;2.70;;;;;;;7.17;100.00;97653.48;102909;1264;107725;-70
2024/01/04 03:43:01;;;;;;;4.50;2.90;;;;;;;7.15;100.00;97654.27;103366;1261;138661;-71
2024/01/04 03:45:28;;;;;;;4.80;2.90;;;;;;;7.16;100.00;97653.39;102792;1261;109933;-71
2024/01/04 03:47:55;;;;;;;5.70;3.20;;;;;;;7.15;100.00;97652.23;102962;1260;97710;-70
2024/01/04 03:50:22;;;;;;;5.90;2.90;;;;;;;7.13;100.00;97653.38;103012;1261;139198;-70
2024/01/04 03:52:49;;;;;;;4.50;2.70;;;;;;;7.13;100.00;97654.96;102834;1264;107917;-70
2024/01/04 03:55:17;;;;;;;5.10;3.20;;;;;;;7.12;100.00;97651.38;103075;1260;138427;-70
2024/01/04 03:57:45;;;;;;;5.90;2.80;;;;;;;7.12;100.00;97645.48;102849;1261;107929;-70
2024/01/04 04:00:13;;;;;;;7.60;2.80;;;;;;;7.13;100.00;97645.77;102812;1264;97931;-71
2024/01/04 04:02:41;;;;;;;5.70;3.00;;;;;;;7.13;100.00;97650.12;103374;1260;138115;-69
2024/01/04 04:05:09;;;;;;;5.40;2.80;;;;;;;7.11;100.00;97642.45;102804;1260;107424;-69
2024/01/04 04:07:36;;;;;;;4.80;3.20;;;;;;;7.14;100.00;97646.95;102819;1259;138391;-73
2024/01/04 04:10:04;;;;;;;5.40;3.00;;;;;;;7.13;100.00;97651.33;102843;1260;110017;-70
2024/01/04 04:12:31;;;;;;;5.90;3.00;;;;;;;7.11;100.00;97649.55;103205;1259;138857;-69
2024/01/04 04:14:57;;;;;;;5.90;2.90;;;;;;;7.10;100.00;97649.59;102912;1261;111842;-70
2024/01/04 04:17:25;;;;;;;9.40;3.30;;;;;;;7.12;100.00;97648.63;102856;1259;107585;-71
2024/01/04 04:19:52;;;;;;;5.10;2.80;;;;;;;7.11;100.00;97639.86;102751;1259;138886;-69
2024/01/04 04:22:19;;;;;;;6.60;3.20;;;;;;;7.10;100.00;97640.66;102822;1263;107626;-69
2024/01/04 04:24:46;;;;;;;6.20;3.30;;;;;;;7.09;100.00;97639.65;102664;1274;138683;-72
2024/01/04 04:27:13;;;;;;;4.30;3.40;;;;;;;7.08;100.00;97639.70;102825;1260;111823;-71
2024/01/04 04:29:42;;;;;;;5.00;3.20;;;;;;;7.06;100.00;97641.02;102841;1263;108320;-70
2024/01/04 04:32:09;;;;;;;6.50;3.30;;;;;;;7.05;100.00;97643.53;102721;1260;139963;-69
2024/01/04 04:34:36;;;;;;;6.30;3.40;;;;;;;7.03;100.00;97645.73;102844;1263;107588;-70
2024/01/04 04:37:03;;;;;;;6.10;3.70;;;;;;;6.99;100.00;97642.11;102804;1261;138424;-71
2024/01/04 04:39:31;;;;;;;7.10;4.00;;;;;;;6.95;100.00;97648.23;103005;1260;110758;-70
2024/01/04 04:41:58;;;;;;;6.90;3.80;;;;;;;6.94;100.00;97645.56;102720;1260;106832;-70
2024/01/04 04:44:25;;;;;;;9.00;4.60;;;;;;;6.93;100.00;97647.85;102724;1262;138352;-70
2024/01/04 04:46:52;;;;;;;7.00;4.70;;;;;;;6.91;100.00;97643.67;102854;1259;108557;-70
2024/01/04 04:49:19;;;;;;;6.80;4.70;;;;;;;6.88;100.00;97651.09;102653;1260;138257;-69
2024/01/04 04:51:48;;;;;;;6.70;4.00;;;;;;;6.87;100.00;97645.80;102770;1262;111494;-70
2024/01/04 04:54:16;;;;;;;7.00;4.50;;;;;;;6.86;100.00;97649.46;102862;1259;107725;-71
2024/01/04 04:56:43;;;;;;;9.00;4.60;;;;;;;6.84;100.00;97650.11;102710;1263;138217;-70
2024/01/04 04:59:10;;;;;;;5.30;3.90;;;;;;;6.81;100.00;97649.77;102814;1261;107411;-70
2024/01/04 05:01:39;;;;;;;7.20;4.10;;;;;;;6.77;100.00;97651.20;102710;1263;138265;-70
2024/01/04 05:04:06;;;;;;;8.10;4.40;;;;;;;6.75;100.00;97649.95;102807;1263;111440;-70
2024/01/04 05:06:33;;;;;;;7.90;4.00;;;;;;;6.74;100.00;97653.15;102697;1263;138834;-68
2024/01/04 05:09:00;;;;;;;10.70;4.00;;;;;;;6.73;100.00;97652.33;102849;1263;98355;-69
2024/01/04 05:11:27;;;;;;;7.40;3.80;;;;;;;6.73;100.00;97650.75;102923;1262;108238;-69
2024/01/04 05:13:54;;;;;;;6.50;4.00;;;;;;;6.72;100.00;97650.33;102800;1259;138385;-69
2024/01/04 05:16:20;;;;;;;7.00;4.00;;;;;;;6.72;100.00;97653.56;102990;1257;111127;-69
2024/01/04 05:18:47;;;;;;;7.50;3.50;;;;;;;6.75;100.00;97651.89;102847;1259;138620;-69
2024/01/04 05:21:15;;;;;;;7.80;3.90;;;;;;;6.78;100.00;97649.27;102937;1258;97918;-69
2024/01/04 05:23:42;;;;;;;7.40;3.80;;;;;;;6.78;100.00;97647.51;103077;1257;107858;-69
2024/01/04 05:26:08;;;;;;;6.20;3.60;;;;;;;6.77;100.00;97647.25;102864;1258;138366;-69
2024/01/04 05:28:35;;;;;;;6.80;3.90;;;;;;;6.80;100.00;97650.52;103076;1258;111462;-72
2024/01/04 05:31:02;;;;;;;6.50;3.80;;;;;;;6.82;100.00;97658.02;102922;1260;139236;-69
2024/01/04 05:33:29;;;;;;;5.50;3.40;;;;;;;6.82;100.00;97656.44;103089;1261;97093;-69
2024/01/04 05:35:57;;;;;;;5.80;3.80;;;;;;;6.82;100.00;97658.54;103094;1258;109280;-69
2024/01/04 05:38:23;;;;;;;8.70;3.70;;;;;;;6.82;100.00;97666.27;102905;1260;138997;-71
2024/01/04 05:40:50;;;;;;;8.80;4.20;;;;;;;6.84;100.00;97662.02;103038;1259;111486;-69
2024/01/04 05:43:17;;;;;;;6.40;4.20;;;;;;;6.85;100.00;97664.70;102874;1259;138660;-72
2024/01/04 05:45:44;;;;;;;7.00;3.70;;;;;;;6.86;100.00;97667.95;103052;1259;97845;-70
2024/01/04 05:48:11;;;;;;;9.30;4.40;;;;;;;6.87;100.00;97671.52;102895;1260;107011;-69
2024/01/04 05:50:38;;;;;;;9.00;4.50;;;;;;;6.89;100.00;97667.45;102884;1261;138198;-69
2024/01/04 05:53:06;;;;;;;7.70;3.80;;;;;;;6.90;100.00;97668.24;103050;1261;111147;-69
2024/01/04 05:55:32;;;;;;;9.30;4.50;;;;;;;6.91;100.00;97668.53;103066;1257;138871;-69
2024/01/04 05:57:59;;;;;;;6.90;4.20;;;;;;;6.92;100.00;97670.52;103075;1260;97800;-69
2024/01/04 06:00:27;;;;;;;7.30;4.10;;;;;;;6.92;100.00;97672.41;103000;1260;108617;-69
2024/01/04 06:02:54;;;;;;;8.70;4.50;;;;;;;6.93;100.00;97676.90;103047;1258;97803;-69
2024/01/04 06:05:21;;;;;;;6.90;3.70;;;;;;;6.94;100.00;97677.50;102990;1262;110902;-68
2024/01/04 06:07:48;;;;;;;8.60;4.40;;;;;;;6.95;100.00;97678.45;103623;1258;141600;-70
2024/01/04 06:10:15;;;;;;;7.90;4.80;;;;;;;6.94;100.00;97681.81;102428;1260;1003007;-69
2024/01/04 06:12:42;;;;;;;8.10;4.70;;;;;;;6.94;100.00;97684.73;102942;1257;138787;-69
2024/01/04 06:15:11;;;;;;;7.40;4.90;;;;;;;6.93;100.00;97691.36;103026;1257;97943;-69
2024/01/04 06:17:38;;;;;;;7.70;4.90;;;;;;;6.93;100.00;97689.85;103275;1258;109579;-70
2024/01/04 06:20:06;;;;;;;6.90;4.60;;;;;;;6.92;100.00;97690.03;103169;1260;138913;-69
2024/01/04 06:22:33;;;;;;;8.10;5.10;;;;;;;6.93;100.00;97690.34;103106;1259;98420;-69
2024/01/04 06:25:00;;;;;;;8.60;4.70;;;;;;;6.93;100.00;97695.88;102909;1262;138479;-70
2024/01/04 06:27:27;;;;;;;8.30;5.00;;;;;;;6.94;100.00;97695.27;103018;1257;97704;-70
2024/01/04 06:29:54;;;;;;;8.10;5.30;;;;;;;6.93;100.00;97692.38;102995;1260;111855;-71
2024/01/04 06:32:21;;;;;;;7.60;5.10;;;;;;;6.94;100.00;97687.52;103298;1259;139001;-70
2024/01/04 06:34:48;;;;;;;7.40;4.90;;;;;;;6.95;100.00;97689.35;103036;1262;97699;-70
2024/01/04 06:37:15;;;;;;;8.10;4.90;;;;;;;6.96;100.00;97689.98;102860;1262;138249;-70
2024/01/04 06:39:42;;;;;;;7.30;4.80;;;;;;;6.96;100.00;97686.17;102960;1259;98481;-69
2024/01/04 06:42:09;;;;;;;5.90;4.50;;;;;;;6.98;100.00;97680.88;102963;1257;111260;-69
2024/01/04 06:44:36;;;;;;;8.70;4.40;;;;;;;6.99;100.00;97680.48;102820;1257;139361;-70
2024/01/04 06:47:13;;;;;;;10.10;5.00;;;;;;;7.00;100.00;97681.98;102935;1257;98587;-70
2024/01/04 06:49:39;;;;;;;10.10;4.90;;;;;;;7.02;100.00;97678.94;102835;1258;139658;-69
2024/01/04 06:52:08;;;;;;;5.90;4.40;;;;;;;7.03;100.00;97682.33;103005;1262;97820;-70
2024/01/04 06:54:34;;;;;;;9.30;4.20;;;;;;;7.03;100.00;97680.10;102804;1259;138935;-70
2024/01/04 06:57:02;;;;;;;8.60;4.10;;;;;;;7.04;100.00;97682.31;102945;1263;107420;-71
2024/01/04 06:59:29;;;;;;;7.70;4.30;;;;;;;7.04;100.00;97684.00;103020;1258;97817;-70
2024/01/04 07:01:56;;;;;;;6.50;4.50;;;;;;;7.03;100.00;97685.44;102797;1259;138262;-69
2024/01/04 07:04:23;;;;;;;7.50;3.90;;;;;;;7.01;100.00;97685.08;102814;1258;98555;-70
2024/01/04 07:06:50;;;;;;;7.40;4.70;;;;;;;7.02;100.00;97679.82;102823;1262;139815;-70
2024/01/04 07:09:17;;;;;;;9.50;3.80;;;;;;;7.03;100.00;97682.66;102840;1259;109773;-69
2024/01/04 07:11:44;;;;;;;6.50;4.30;;;;;;;7.04;100.00;97682.77;102964;1259;97834;-71
2024/01/04 07:14:12;;;;;;;6.80;4.30;;;;;;;7.07;100.00;97680.20;102811;1258;138355;-68
2024/01/04 07:16:46;;;;;;;6.30;4.30;;;;;;;7.08;100.00;97680.85;102943;1262;97848;-69
2024/01/04 07:19:13;;;;;;;8.50;4.30;;;;;;;7.08;100.00;97679.95;102839;1260;138255;-70
2024/01/04 07:21:42;;;;;;;6.50;4.20;;;;;;;7.08;100.00;97682.37;102866;1259;108350;-69
2024/01/04 07:24:09;;;;;;;6.30;4.30;;;;;;;7.09;100.00;97679.92;102951;1262;97833;-69
2024/01/04 07:26:37;;;;;;;6.00;4.00;;;;;;;7.10;100.00;97680.70;102847;1257;138610;-69
2024/01/04 07:29:04;;;;;;;6.00;4.10;;;;;;;7.12;100.00;97681.79;103022;1259;97831;-71
2024/01/04 07:31:31;;;;;;;7.00;4.30;;;;;;;7.11;100.00;97677.56;102881;1259;138499;-67
2024/01/04 07:33:57;;;;;;;7.50;4.30;;;;;;;7.13;100.00;97679.34;102864;1259;108518;-71
2024/01/04 07:36:25;;;;;;;6.60;4.10;;;;;;;7.14;100.00;97683.02;102755;1259;98328;-69
2024/01/04 07:38:52;;;;;;;6.70;3.90;;;;;;;7.15;100.00;97678.87;102919;1262;110654;-70
2024/01/04 07:41:19;;;;;;;5.80;4.00;;;;;;;7.15;100.00;97679.02;102822;1259;97800;-70
2024/01/04 07:43:47;;;;;;;7.10;4.00;;;;;;;7.16;100.00;97679.46;102922;1259;138409;-71
2024/01/04 07:46:14;;;;;;;8.00;4.10;;;;;;;7.18;100.00;97673.67;102935;1257;107229;-69
2024/01/04 07:48:41;;;;;;;8.50;4.20;;;;;;;7.19;100.00;97676.05;102891;1263;138682;-70
2024/01/04 07:51:08;;;;;;;5.70;3.90;;;;;;;7.20;100.00;97675.27;102933;1257;107488;-70
2024/01/04 07:53:35;;;;;;;7.20;3.90;;;;;;;7.19;100.00;97673.43;102979;1258;97913;-73
2024/01/04 07:56:02;;;;;;;5.60;3.80;;;;;;;7.21;100.00;97677.46;102885;1262;138327;-75
2024/01/04 07:58:30;;;;;;;9.20;4.80;;;;;;;7.22;100.00;97677.41;102994;1259;107203;-74
2024/01/04 08:00:57;;;;;;;8.80;4.50;;;;;;;7.22;100.00;97681.35;102887;1259;139339;-75
2024/01/04 08:03:28;;;;;;;6.40;4.20;;;;;;;7.23;100.00;97679.23;103171;1259;107111;-75
2024/01/04 08:05:55;;;;;;;5.60;3.80;;;;;;;7.24;100.00;97678.45;103274;1258;97922;-74
2024/01/04 08:08:23;;;;;;;6.30;4.30;;;;;;;7.26;100.00;97679.38;102917;1259;138210;-73
2024/01/04 08:10:50;;;;;;;6.40;4.40;;;;;;;7.28;100.00;97676.17;103721;1258;107192;-75
2024/01/04 08:13:18;;;;;;;6.40;4.50;;;;;;;7.31;100.00;97678.80;103026;1259;138431;-75
2024/01/04 08:15:45;;;;;;;7.00;5.00;;;;;;;7.34;100.00;97676.20;104051;1262;108129;-74
2024/01/04 08:18:12;;;;;;;8.90;4.60;;;;;;;7.36;100.00;97674.17;103502;1258;98024;-74
2024/01/04 08:20:39;;;;;;;7.00;4.60;;;;;;;7.33;100.00;97676.58;102800;1259;138316;-73
2024/01/04 08:23:06;;;;;;;6.60;4.60;;;;;;;7.34;100.00;97672.37;102933;1259;106963;-72
2024/01/04 08:25:33;;;;;;;9.30;5.30;;;;;;;7.40;100.00;97677.54;103009;1259;138424;-73
2024/01/04 08:28:00;;;;;;;6.80;4.70;;;;;;;7.43;100.00;97682.17;103011;1259;107660;-75
2024/01/04 08:30:26;;;;;;;8.00;4.70;;;;;;;7.44;100.00;97676.95;102958;1262;97800;-75
2024/01/04 08:32:54;;;;;;;7.90;4.80;;;;;;;7.47;100.00;97682.98;102996;1257;110156;-74
2024/01/04 08:35:21;;;;;;;6.70;4.40;;;;;;;7.49;100.00;97684.44;102896;1257;107964;-74
2024/01/04 08:37:49;;;;;;;6.30;4.50;;;;;;;7.49;100.00;97685.10;102929;1262;138650;-75
2024/01/04 08:40:16;;;;;;;8.50;4.60;;;;;;;7.50;100.00;97681.42;103079;1259;107362;-74
2024/01/04 08:42:43;;;;;;;7.20;4.80;;;;;;;7.50;100.00;97684.02;102693;1259;138957;-74
2024/01/04 08:45:12;;;;;;;7.30;5.50;;;;;;;7.50;100.00;97684.52;103022;1263;110646;-73
2024/01/04 08:47:40;;;;;;;8.70;5.20;;;;;;;7.51;100.00;97687.24;103302;1259;107785;-73
2024/01/04 08:50:08;;;;;;;8.40;5.50;;;;;;;7.53;100.00;97685.74;103591;1257;138986;-73
2024/01/04 08:52:35;;;;;;;7.30;5.30;;;;;;;7.54;100.00;97688.28;103975;1258;107932;-77
2024/01/04 08:55:02;;;;;;;8.90;5.50;;;;;;;7.52;100.00;97688.04;103287;1263;138758;-77
2024/01/04 08:57:30;;;;;;;10.20;5.40;;;;;;;7.53;100.00;97692.95;103051;1259;111357;-75
2024/01/04 08:59:57;;;;;;;6.90;5.20;;;;;;;7.54;100.00;97693.09;102938;1259;109020;-76
2024/01/04 09:02:24;;;;;;;7.50;5.30;;;;;;;7.53;100.00;97697.63;102847;1259;138453;-73
2024/01/04 09:04:52;;;;;;;9.30;5.90;;;;;;;7.50;100.00;97697.80;101290;1258;1003239;-73
2024/01/04 09:07:19;;;;;;;8.20;5.60;;;;;;;7.51;100.00;97698.12;102828;1262;138603;-73
2024/01/04 09:09:46;;;;;;;8.70;6.10;;;;;;;7.53;100.00;97699.56;103041;1259;110691;-72
2024/01/04 09:12:14;;;;;;;6.90;5.00;;;;;;;7.53;100.00;97699.20;102865;1259;107999;-72
2024/01/04 09:14:41;;;;;;;8.10;5.80;;;;;;;7.51;100.00;97698.61;102806;1259;138617;-73
2024/01/04 09:17:08;;;;;;;6.30;4.80;;;;;;;7.51;100.00;97699.66;102972;1258;106929;-72
2024/01/04 09:19:35;;;;;;;8.30;5.50;;;;;;;7.54;100.00;97699.36;102761;1258;138573;-73
2024/01/04 09:22:04;;;;;;;6.90;4.80;;;;;;;7.54;100.00;97698.61;103016;1259;110582;-72
2024/01/04 09:24:32;;;;;;;9.20;5.20;;;;;;;7.56;100.00;97704.73;102973;1259;108030;-72
2024/01/04 09:27:00;;;;;;;7.90;4.90;;;;;;;7.56;100.00;97703.17;102924;1263;98344;-71
2024/01/04 09:29:27;;;;;;;6.60;4.60;;;;;;;7.56;100.00;97704.38;102978;1259;107371;-71
2024/01/04 09:31:55;;;;;;;6.10;4.90;;;;;;;7.56;100.00;97702.70;102881;1259;138891;-72
2024/01/04 09:34:24;;;;;;;5.90;4.50;;;;;;;7.58;100.00;97706.72;102974;1262;111130;-71
2024/01/04 09:36:51;;;;;;;6.20;4.30;;;;;;;7.60;100.00;97705.39;103221;1259;139083;-72
2024/01/04 09:39:18;;;;;;;6.50;4.00;;;;;;;7.63;100.00;97703.42;103154;1258;97828;-71
2024/01/04 09:41:48;;;;;;;6.50;4.10;;;;;;;7.67;100.00;97704.59;103050;1259;109875;-71
2024/01/04 09:44:15;;;;;;;7.00;3.80;;;;;;;7.68;100.00;97702.41;102292;1259;1003030;-72
2024/01/04 09:46:43;;;;;;;6.30;3.90;;;;;;;7.72;100.00;97700.31;103484;1258;111343;-72
2024/01/04 09:49:13;;;;;;;6.70;4.10;;;;;;;7.78;100.00;97697.53;102929;1259;138941;-71
2024/01/04 09:51:41;;;;;;;5.70;3.60;;;;;;;7.83;100.00;97694.94;103609;1259;97849;-72
2024/01/04 09:54:09;;;;;;;9.60;4.30;;;;;;;7.87;100.00;97697.98;102976;1263;107531;-73
2024/01/04 09:56:40;;;;;;;7.40;3.90;;;;;;;7.87;100.00;97698.46;103626;1258;138540;-72
2024/01/04 09:59:08;;;;;;;5.90;3.90;;;;;;;7.86;100.00;97698.88;102941;1262;110805;-72
2024/01/04 10:01:36;;;;;;;5.40;4.20;;;;;;;7.86;100.00;97698.38;102826;1257;138829;-73
2024/01/04 10:04:11;;;;;;;5.40;3.60;;;;;;;7.88;100.00;97699.45;103682;1262;96952;-73
2024/01/04 10:06:39;;;;;;;5.00;3.30;;;;;;;7.92;100.00;97698.42;103134;1259;138724;-72
2024/01/04 10:09:15;;;;;;;5.10;3.70;;;;;;;7.95;100.00;97702.56;103481;1259;97858;-74
2024/01/04 10:11:53;;;;;;;4.60;3.40;;;;;;;7.94;100.00;97701.37;103136;1262;111074;-73
2024/01/04 10:14:20;;;;;;;5.50;3.40;;;;;;;7.93;100.00;97699.41;102707;1259;138532;-72
2024/01/04 10:16:48;;;;;;;5.20;3.50;;;;;;;7.92;100.00;97703.23;102903;1259;97983;-71
2024/01/04 10:19:15;;;;;;;6.40;3.40;;;;;;;7.93;100.00;97702.88;102867;1259;139017;-71
2024/01/04 10:21:42;;;;;;;4.30;3.70;;;;;;;7.93;100.00;97702.67;103622;1257;98144;-73
2024/01/04 10:24:13;;;;;;;5.50;4.00;;;;;;;7.92;100.00;97703.06;102969;1259;110874;-72
2024/01/04 10:26:41;;;;;;;4.90;3.60;;;;;;;7.92;100.00;97704.66;103383;1259;138335;-72
2024/01/04 10:29:09;;;;;;;6.30;3.60;;;;;;;7.88;100.00;97707.27;102975;1257;98071;-72
2024/01/04 10:31:35;;;;;;;5.10;3.80;;;;;;;7.87;100.00;97711.31;103199;1258;1002919;-74
2024/01/04 10:34:03;;;;;;;5.30;3.90;;;;;;;7.85;100.00;97710.54;102955;1259;97817;-71
2024/01/04 10:36:32;;;;;;;5.20;3.70;;;;;;;7.85;100.00;97711.93;102981;1259;112599;-71
2024/01/04 10:39:09;;;;;;;5.40;4.00;;;;;;;7.87;100.00;97709.05;103705;1258;107479;-72
2024/01/04 10:41:36;;;;;;;7.10;4.40;;;;;;;7.87;100.00;97714.58;104015;1258;97808;-71
2024/01/04 10:44:07;;;;;;;7.90;3.80;;;;;;;7.92;100.00;97712.07;102902;1264;138193;-71
2024/01/04 10:46:35;;;;;;;8.10;3.60;;;;;;;7.96;100.00;97711.49;103595;1258;96827;-71
2024/01/04 10:49:02;;;;;;;5.50;3.40;;;;;;;7.98;100.00;97706.70;103350;1259;139797;-72
2024/01/04 10:51:32;;;;;;;6.70;3.80;;;;;;;8.02;100.00;97703.66;103390;1259;107074;-72
2024/01/04 10:54:01;;;;;;;7.10;4.40;;;;;;;8.05;100.00;97701.88;102957;1259;97816;-72
2024/01/04 10:56:29;;;;;;;6.50;4.40;;;;;;;8.08;100.00;97698.61;103926;1257;138333;-71
2024/01/04 10:58:56;;;;;;;6.30;4.90;;;;;;;8.12;100.00;97700.08;103211;1258;97813;-73
2024/01/04 11:01:23;;;;;;;6.60;4.70;;;;;;;8.15;100.00;97701.60;102855;1259;138185;-71
2024/01/04 11:03:50;;;;;;;6.90;5.00;;;;;;;8.17;100.00;97699.54;102918;1258;107375;-71
2024/01/04 11:06:17;;;;;;;6.10;5.10;;;;;;;8.19;100.00;97695.47;103081;1258;97898;-71
2024/01/04 11:08:45;;;;;;;8.10;5.60;;;;;;;8.22;100.00;97698.92;102819;1257;138841;-71
2024/01/04 11:11:14;;;;;;;9.70;5.50;;;;;;;8.23;100.00;97699.04;102823;1259;97949;-71
2024/01/04 11:13:42;;;;;;;7.70;5.30;;;;;;;8.20;100.00;97698.34;103175;1257;138206;-72
2024/01/04 11:16:20;;;;;;;7.80;5.60;;;;;;;8.18;100.00;97699.87;103105;1259;109548;-72
2024/01/04 11:18:58;;;;;;;8.80;7.00;;;;;;;8.15;100.00;97700.05;102874;1259;138589;-72
2024/01/04 11:21:55;;;;;;;6.50;5.80;;;;;;;8.14;100.00;97703.57;103064;1258;108612;-72